• Join FlightAware (Why Join?)
  • Login
  • US Flag 
02:31AM EST


 

Airport Tracker/Info


-or-


 

Live Flight TrackerFlight Track Log ✈ N53NW ✈ 16-Oct-2013 ✈ KHPN - KSAV

Flight Track Log - Related Links

Times and Time Zones

All times are in EDT time to prevent confusion due to time zone crossing. See the N53NW flight status page for this flight to view local times or setup timezone preferences in your user account.

Time Position Orientation Groundspeed Altitude Reporting Facility
EDT Latitude Longitude Course Direction KTS MPH feet Rate Location/Type
11:01AM 41.0333 -73.7000 252° West 192 221 2,100  Level New York TRACON
11:02AM 41.0167 -73.7667 252° West 210 242 4,100 2,040 Climbing New York TRACON
11:03AM 41.0000 -73.8500 255° West 240 276 6,200 1,440 Climbing New York TRACON
11:04AM 40.9500 -73.9000 217° Southwest 249 287 7,000 1,500 Climbing New York TRACON
11:05AM 40.8833 -73.9333 201° Southwest 239 275 9,200 2,160 Climbing New York TRACON
11:06AM 40.8167 -73.9833 210° Southwest 251 289 11,400 1,380 Climbing New York TRACON
11:07AM 40.7500 -74.0167 201° Southwest 280 322 12,000 300 Climbing New York TRACON
11:08AM 40.6833 -74.0667 210° Southwest 289 333 12,000 240 Level New York TRACON
11:09AM 40.6167 -74.1000 201° Southwest 292 336 12,500 1,560 Climbing New York TRACON
11:11AM 40.4775 -74.1353 191° South 290 334 16,300 2,160 Climbing Washington Center
11:12AM 40.4028 -74.1561 192° South 283 326 18,400 2,040 Climbing Washington Center
11:13AM 40.3239 -74.1739 190° South 283 326 20,400 1,920 Climbing Washington Center
11:14AM 40.2469 -74.2000 195° South 283 326 22,300 1,680 Climbing Washington Center
11:15AM 40.1811 -74.2611 215° Southwest 283 326 23,900 840 Climbing Washington Center
11:16AM 40.1108 -74.3247 215° Southwest 297 342 24,000 120 Climbing Washington Center
11:17AM 40.0408 -74.3964 218° Southwest 317 365 24,200 900 Climbing Washington Center
11:18AM 39.9728 -74.4625 217° Southwest 317 365 25,800 1,380 Climbing Washington Center
11:19AM 39.9128 -74.5203 216° Southwest 317 365 27,000 1,200 Climbing Washington Center
11:20AM 39.8447 -74.5861 217° Southwest 312 359 28,300 1,200 Climbing Washington Center
11:21AM 39.7722 -74.6547 216° Southwest 317 365 29,500 1,200 Climbing Washington Center
11:22AM 39.6978 -74.7231 215° Southwest 323 372 30,700 1,200 Climbing Washington Center
11:23AM 39.6233 -74.7994 218° Southwest 336 387 31,900 1,200 Climbing Washington Center
11:24AM 39.5489 -74.8703 216° Southwest 341 392 33,200 1,140 Climbing Washington Center
11:25AM 39.4764 -74.9408 217° Southwest 341 392 34,300 1,080 Climbing Washington Center
11:26AM 39.4017 -75.0089 215° Southwest 336 387 35,400 1,020 Climbing Washington Center
11:27AM 39.3269 -75.0764 215° Southwest 336 387 36,400 960 Climbing Washington Center
11:28AM 39.2500 -75.1386 212° Southwest 336 387 37,400 960 Climbing Washington Center
11:29AM 39.1711 -75.2008 211° Southwest 336 387 38,400 960 Climbing Washington Center
11:30AM 39.0733 -75.2281 192° South 341 392 39,400 780 Climbing Washington Center
11:31AM 38.9794 -75.2739 201° Southwest 354 407 40,000 240 Climbing Washington Center
11:32AM 38.8753 -75.3117 196° South 374 430 40,000  Level Washington Center
11:33AM 38.7650 -75.3519 196° South 394 453 40,000  Level Washington Center
11:34AM 38.6567 -75.3922 196° South 407 468 40,000  Level Washington Center
11:35AM 38.5464 -75.4378 198° South 412 474 40,000  Level Washington Center
11:36AM 38.4336 -75.4778 196° South 422 486 40,000  Level Washington Center
11:37AM 38.3294 -75.5256 200° South 416 479 40,000  Level Washington Center
11:38AM 38.2314 -75.6156 216° Southwest 396 456 40,000  Level Washington Center
11:39AM 38.1458 -75.6972 217° Southwest 396 456 40,000  Level Washington Center
11:40AM 38.0603 -75.7764 216° Southwest 391 450 40,000  Level Washington Center
11:41AM 37.9728 -75.8578 216° Southwest 391 450 40,000  Level Washington Center
11:42AM 37.8847 -75.9417 217° Southwest 391 450 40,000  Level Washington Center
11:43AM 37.8011 -76.0203 217° Southwest 391 450 40,000  Level Washington Center
11:44AM 37.7258 -76.0986 219° Southwest 391 450 40,000  Level Washington Center
11:45AM 37.6275 -76.1792 213° Southwest 397 457 40,000  Level Washington Center
11:46AM 37.5394 -76.2597 216° Southwest 392 451 40,000  Level Washington Center
11:47AM 37.4514 -76.3400 216° Southwest 392 451 40,000  Level Washington Center
11:48AM 37.3631 -76.4203 216° Southwest 392 451 40,000  Level Washington Center
11:49AM 37.2772 -76.5003 217° Southwest 392 451 40,000  Level Washington Center
11:50AM 37.1889 -76.5772 215° Southwest 392 451 40,000  Level Washington Center
11:51AM 37.1006 -76.6594 217° Southwest 392 451 40,000  Level Washington Center
11:52AM 37.0122 -76.7417 217° Southwest 392 451 40,000  Level Washington Center
11:53AM 36.9258 -76.8183 215° Southwest 392 451 40,000  Level Washington Center
11:54AM 36.8375 -76.8972 216° Southwest 392 451 40,000  Level Washington Center
11:55AM 36.7511 -76.9761 216° Southwest 387 445 40,000  Level Washington Center
11:56AM 36.6686 -77.0550 217° Southwest 387 445 40,000  Level Washington Center
11:57AM 36.5842 -77.1336 217° Southwest 387 445 40,000  Level Washington Center
11:58AM 36.4978 -77.2172 218° Southwest 387 445 40,000  Level Washington Center
11:59AM 36.4153 -77.2981 218° Southwest 387 445 40,000  Level Washington Center
12:00PM 36.3264 -77.3761 215° Southwest 392 451 40,000  Level Washington Center
12:01PM 36.2417 -77.4567 217° Southwest 392 451 40,000  Level Washington Center
12:02PM 36.1611 -77.5344 218° Southwest 386 444 40,000  Level Washington Center
12:03PM 36.0742 -77.6169 217° Southwest 386 444 40,000  Level Washington Center
12:04PM 35.9872 -77.6969 217° Southwest 391 450 40,000  Level Washington Center
12:05PM 35.8942 -77.7714 213° Southwest 391 450 40,000  Level Washington Center
12:06PM 35.8011 -77.8431 212° Southwest 401 461 40,000  Level Washington Center
12:07PM 35.7100 -77.9122 212° Southwest 401 461 40,000  Level Washington Center
12:08PM 35.6167 -77.9861 213° Southwest 396 456 40,000  Level Washington Center
12:09PM 35.5236 -78.0572 212° Southwest 396 456 40,000  Level Washington Center
12:10PM 35.4303 -78.1283 212° Southwest 396 456 40,000  Level Washington Center
12:11PM 35.3347 -78.2017 212° Southwest 396 456 40,000  Level Washington Center
12:12PM 35.2456 -78.2778 215° Southwest 396 456 40,000  Level Washington Center
12:13PM 35.1581 -78.3636 219° Southwest 402 463 40,000  Level Washington Center
12:14PM 35.0747 -78.4444 218° Southwest 397 457 40,000  Level Washington Center
12:15PM 34.9892 -78.5278 219° Southwest 397 457 40,000  Level Washington Center
12:16PM 34.9058 -78.6108 219° Southwest 397 457 40,000  Level Washington Center
12:17PM 34.8394 -78.6767 219° Southwest 391 450 40,000  Level Washington Center
12:18PM 34.6825 -78.8253 218° Southwest 393 452 40,000  Level Jacksonville Center
12:19PM 34.5994 -78.9050 218° Southwest 393 452 40,000  Level Jacksonville Center
12:20PM 34.5167 -78.9869 219° Southwest 393 452 40,000  Level Jacksonville Center
12:21PM 34.4336 -79.0736 221° Southwest 393 452 40,000 -240 Level Jacksonville Center
12:22PM 34.3506 -79.1503 217° Southwest 393 452 39,600 -840 Descending Jacksonville Center
12:23PM 34.2653 -79.2344 219° Southwest 393 452 38,400 -1,200 Descending Jacksonville Center
12:24PM 34.1778 -79.3133 217° Southwest 393 452 37,200 -1,200 Descending Jacksonville Center
12:25PM 34.0906 -79.3972 219° Southwest 393 452 36,000 -1,260 Descending Jacksonville Center
12:26PM 34.0008 -79.4783 217° Southwest 388 447 34,700 -1,260 Descending Jacksonville Center
12:27PM 33.9114 -79.5669 219° Southwest 394 453 33,500 -1,200 Descending Jacksonville Center
12:28PM 33.8219 -79.6503 218° Southwest 405 466 32,300 -1,200 Descending Jacksonville Center
12:29PM 33.7342 -79.7333 218° Southwest 411 473 31,100 -1,200 Descending Jacksonville Center
12:30PM 33.6425 -79.8214 219° Southwest 411 473 30,000 -1,020 Descending Jacksonville Center
12:31PM 33.5528 -79.9044 218° Southwest 411 473 29,100 -1,260 Descending Jacksonville Center
12:32PM 33.4647 -79.9844 217° Southwest 411 473 27,500 -1,740 Descending Jacksonville Center
12:33PM 33.3811 -80.0644 219° Southwest 411 473 25,700 -1,860 Descending Jacksonville Center
12:34PM 33.2992 -80.1392 217° Southwest 401 461 23,800 -2,040 Descending Jacksonville Center
12:35PM 33.2236 -80.2108 218° Southwest 375 432 21,700 -2,040 Descending Jacksonville Center
12:36PM 33.1417 -80.2803 215° Southwest 363 418 19,800 -1,980 Descending Jacksonville Center
12:37PM 33.0700 -80.3494 219° Southwest 356 410 17,800 -1,920 Descending Jacksonville Center
12:38PM 32.9981 -80.4158 218° Southwest 350 403 16,000 -1,920 Descending Jacksonville Center
12:39PM 32.9264 -80.4797 217° Southwest 345 397 14,000 -2,040 Descending Jacksonville Center
12:40PM 32.8567 -80.5458 219° Southwest 334 384 12,000 -1,500 Descending Jacksonville Center
12:41PM 32.7889 -80.6069 217° Southwest 328 377 11,000 -540 Descending Jacksonville Center
12:42PM 32.7211 -80.6678 217° Southwest 318 366 11,000  Level Jacksonville Center
12:43PM 32.6533 -80.7286 217° Southwest 318 366 11,000  Level Jacksonville Center
12:44PM 32.5875 -80.7894 218° Southwest 318 366 11,000  Level Jacksonville Center
12:45PM 32.5281 -80.8575 224° Southwest 308 354 11,000  Level Jacksonville Center
12:46PM 32.4897 -80.9469 243° Southwest 301 346 11,000  Level Jacksonville Center
12:47PM 32.4514 -81.0314 242° Southwest 301 346 11,000 -300 Level Jacksonville Center
12:48PM 32.4131 -81.1158 242° Southwest 301 346 10,400 -1,140 Descending Jacksonville Center
12:49PM 32.3744 -81.2100 244° Southwest 295 339 8,800 -1,560 Descending Jacksonville Center
12:50PM 32.3461 -81.2794 244° Southwest 271 312 7,300 -1,560 Descending Jacksonville Center
12:51PM 32.3011 -81.3342 226° Southwest 256 295 5,700 -2,340 Descending Jacksonville Center
12:52PM 32.2217 -81.3406 184° South 239 275 2,700 -1,920 Descending Jacksonville Center
12:53PM 32.1592 -81.3417 181° South 245 282 1,900 -840 Descending Jacksonville Center
12:55PM 32.1311 -81.2177 North  Level Estimated
01:02PM 32.1167 -81.2000 North  Level FlightAware Approximate
01:03PM 32.1276 -81.2021 North  Level Estimated
01:04PM 32.1276 -81.2021 North  Level Estimated
01:05PM 32.1276 -81.2021 North  Level Estimated
01:06PM 32.1276 -81.2021 North  Level Estimated
01:07PM 32.1276 -81.2021 North  Level Estimated
01:08PM 32.1276 -81.2021 North  Level Estimated